createdAt,value
2019-02-18T00:01:49.561Z,100684.06
2019-02-18T00:04:35.649Z,100685.27
2019-02-18T00:07:21.457Z,100688.70
2019-02-18T00:10:07.836Z,100688.97
2019-02-18T00:12:54.022Z,100686.47
2019-02-18T00:15:40.037Z,100686.84
2019-02-18T00:18:27.885Z,100690.53
2019-02-18T00:21:13.684Z,100686.11
2019-02-18T00:24:00.547Z,100685.25
2019-02-18T00:26:47.219Z,100689.74
2019-02-18T00:29:33.069Z,100685.58
2019-02-18T00:32:19.369Z,100687.83
2019-02-18T00:35:08.042Z,100686.54
2019-02-18T00:37:54.215Z,100686.20
2019-02-18T00:40:42.065Z,100686.61
2019-02-18T00:43:28.545Z,100687.73
2019-02-18T00:46:14.586Z,100681.67
2019-02-18T00:49:03.425Z,100678.30
2019-02-18T00:51:49.771Z,100679.12
2019-02-18T00:54:36.017Z,100682.56
2019-02-18T00:57:21.933Z,100686.58
2019-02-18T01:00:12.120Z,100683.25
2019-02-18T01:02:58.515Z,100682.36
2019-02-18T01:05:44.516Z,100682.28
2019-02-18T01:08:31.006Z,100683.78
2019-02-18T01:11:17.340Z,100679.42
2019-02-18T01:14:03.158Z,100685.83
2019-02-18T01:16:49.274Z,100679.75
2019-02-18T01:19:35.186Z,100679.75
2019-02-18T01:22:21.081Z,100679.91
2019-02-18T01:25:08.990Z,100678.64
2019-02-18T01:27:55.018Z,100683.19
2019-02-18T01:30:40.837Z,100672.47
2019-02-18T01:33:27.521Z,100672.93
2019-02-18T01:36:13.597Z,100671.11
2019-02-18T01:38:59.530Z,100679.06
2019-02-18T01:41:45.881Z,100678.55
2019-02-18T01:44:31.827Z,100669.59
2019-02-18T01:47:17.881Z,100674.32
2019-02-18T01:50:05.568Z,100674.32
2019-02-18T01:52:51.581Z,100673.92
2019-02-18T01:55:37.810Z,100665.09
2019-02-18T01:58:23.898Z,100660.14
2019-02-18T02:01:09.978Z,100653.25
2019-02-18T02:03:56.046Z,100657.26
2019-02-18T02:06:42.200Z,100654.16
2019-02-18T02:09:28.322Z,100648.22
2019-02-18T02:12:14.430Z,100653.75
2019-02-18T02:15:00.684Z,100646.05
2019-02-18T02:17:47.123Z,100646.05
2019-02-18T02:20:34.621Z,100653.98
2019-02-18T02:23:20.962Z,100647.94
2019-02-18T02:26:07.138Z,100652.30
2019-02-18T02:28:52.926Z,100653.23
2019-02-18T02:31:38.868Z,100657.00
2019-02-18T02:34:24.943Z,100649.91
2019-02-18T02:37:11.186Z,100644.58
2019-02-18T02:39:57.451Z,100642.65
2019-02-18T02:42:43.585Z,100640.42
2019-02-18T02:45:29.923Z,100643.06
2019-02-18T02:48:15.853Z,100640.42
2019-02-18T02:51:01.898Z,100635.09
2019-02-18T02:53:47.978Z,100632.94
2019-02-18T02:56:34.164Z,100635.34
2019-02-18T02:59:21.524Z,100635.36
2019-02-18T03:02:07.990Z,100632.11
2019-02-18T03:04:54.056Z,100632.11
2019-02-18T03:07:39.795Z,100625.62
2019-02-18T03:10:26.024Z,100625.62
2019-02-18T03:13:12.105Z,100636.31
2019-02-18T03:15:58.105Z,100636.34
2019-02-18T03:18:44.301Z,100634.23
2019-02-18T03:21:30.575Z,100635.94
2019-02-18T03:24:16.533Z,100636.05
2019-02-18T03:27:02.804Z,100634.67
2019-02-18T03:30:42.565Z,100633.06
2019-02-18T03:33:37.807Z,100632.51
2019-02-18T03:36:23.993Z,100634.41
2019-02-18T03:39:10.306Z,100638.68
2019-02-18T03:41:56.881Z,100633.10
2019-02-18T03:44:45.674Z,100628.63
2019-02-18T03:47:32.038Z,100630.64
2019-02-18T03:50:18.205Z,100641.32
2019-02-18T03:53:04.318Z,100641.32
2019-02-18T03:55:50.430Z,100642.08
2019-02-18T03:58:37.158Z,100642.08
2019-02-18T04:01:23.442Z,100643.47
2019-02-18T04:04:09.930Z,100645.53
2019-02-18T04:06:56.453Z,100646.00
2019-02-18T04:09:42.502Z,100644.70
2019-02-18T04:12:28.395Z,100641.09
2019-02-18T04:15:14.707Z,100643.39
2019-02-18T04:18:00.839Z,100655.70
2019-02-18T04:20:49.475Z,100652.00
2019-02-18T04:23:35.784Z,100653.86
2019-02-18T04:26:22.141Z,100653.86
2019-02-18T04:29:08.374Z,100651.32
2019-02-18T04:31:54.530Z,100651.32
2019-02-18T04:34:40.920Z,100644.73
2019-02-18T04:37:26.957Z,100639.31
2019-02-18T04:40:13.369Z,100639.31
2019-02-18T04:42:59.373Z,100640.55
2019-02-18T04:45:45.290Z,100634.70
2019-02-18T04:48:31.611Z,100634.10
2019-02-18T04:51:17.724Z,100633.52
2019-02-18T04:54:03.890Z,100630.70
2019-02-18T04:56:50.549Z,100626.39
2019-02-18T04:59:36.590Z,100624.87
2019-02-18T05:02:22.471Z,100630.16
2019-02-18T05:05:08.565Z,100628.75
2019-02-18T05:07:54.306Z,100620.82
2019-02-18T05:10:40.622Z,100623.82
2019-02-18T05:13:26.713Z,100617.19
2019-02-18T05:16:12.816Z,100617.19
2019-02-18T05:18:58.794Z,100610.36
2019-02-18T05:21:45.490Z,100612.78
2019-02-18T05:24:31.383Z,100606.02
2019-02-18T05:27:17.628Z,100606.02
2019-02-18T05:30:04.907Z,100602.58
2019-02-18T05:32:50.750Z,100600.67
2019-02-18T05:35:36.746Z,100603.12
2019-02-18T05:38:23.087Z,100609.65
2019-02-18T05:41:09.326Z,100606.61
2019-02-18T05:43:55.452Z,100597.63
2019-02-18T05:46:41.571Z,100595.00
2019-02-18T05:49:27.551Z,100596.16
2019-02-18T05:52:13.560Z,100602.52
2019-02-18T05:54:59.846Z,100601.73
2019-02-18T05:57:45.902Z,100601.73
2019-02-18T06:00:32.555Z,100590.83
2019-02-18T06:03:18.873Z,100590.83
2019-02-18T06:06:05.171Z,100594.10
2019-02-18T06:08:51.410Z,100594.10
2019-02-18T06:11:37.834Z,100588.17
2019-02-18T06:14:23.653Z,100582.95
2019-02-18T06:17:09.818Z,100589.49
2019-02-18T06:19:56.523Z,100589.49
2019-02-18T06:22:42.698Z,100583.75
2019-02-18T06:25:28.882Z,100599.45
2019-02-18T06:28:15.290Z,100595.83
2019-02-18T06:31:01.600Z,100602.02
2019-02-18T06:33:47.989Z,100594.06
2019-02-18T06:36:34.351Z,100597.94
2019-02-18T06:39:20.280Z,100597.94
2019-02-18T06:42:06.580Z,100600.79
2019-02-18T06:45:22.643Z,100604.97
2019-02-18T06:48:34.138Z,100604.97
2019-02-18T06:51:20.245Z,100601.23
2019-02-18T06:54:06.310Z,100601.23
2019-02-18T06:57:01.630Z,100608.68
2019-02-18T06:59:50.857Z,100609.41
2019-02-18T07:02:57.630Z,100610.53
2019-02-18T07:05:54.965Z,100610.53
2019-02-18T07:08:46.793Z,100608.07
2019-02-18T07:11:55.895Z,100607.13
2019-02-18T07:14:41.714Z,100607.13
2019-02-18T07:17:28.046Z,100604.23
2019-02-18T07:20:14.318Z,100605.31
2019-02-18T07:23:00.480Z,100608.22
2019-02-18T07:25:46.910Z,100613.41
2019-02-18T07:28:32.862Z,100600.70
2019-02-18T07:31:20.554Z,100611.73
2019-02-18T07:34:06.903Z,100601.78
2019-02-18T07:36:52.799Z,100610.89
2019-02-18T07:39:39.038Z,100606.41
2019-02-18T07:42:25.683Z,100600.56
2019-02-18T07:45:11.738Z,100604.38
2019-02-18T07:48:04.023Z,100601.34
2019-02-18T07:50:50.191Z,100600.32
2019-02-18T07:53:39.177Z,100599.32
2019-02-18T07:56:27.223Z,100597.44
2019-02-18T07:59:15.959Z,100597.73
2019-02-18T08:02:02.245Z,100602.97
2019-02-18T08:04:49.127Z,100588.22
2019-02-18T08:07:35.047Z,100591.27
2019-02-18T08:10:21.108Z,100592.23
2019-02-18T08:13:07.364Z,100594.20
2019-02-18T08:15:53.467Z,100598.06
2019-02-18T08:18:41.698Z,100594.73
2019-02-18T08:21:28.172Z,100583.88
2019-02-18T08:24:14.188Z,100584.38
2019-02-18T08:27:00.182Z,100586.75
2019-02-18T08:29:46.327Z,100581.46
2019-02-18T08:32:32.855Z,100583.80
2019-02-18T08:35:18.979Z,100584.43
2019-02-18T08:38:07.135Z,100580.34
2019-02-18T08:40:53.110Z,100578.66
2019-02-18T08:43:39.179Z,100575.03
2019-02-18T08:46:25.419Z,100576.47
2019-02-18T08:49:11.758Z,100572.01
2019-02-18T08:51:58.510Z,100576.49
2019-02-18T08:54:44.744Z,100573.14
2019-02-18T08:57:30.693Z,100574.30
2019-02-18T09:00:16.771Z,100573.91
2019-02-18T09:03:05.772Z,100571.12
2019-02-18T09:05:52.095Z,100574.52
2019-02-18T09:08:41.020Z,100571.52
2019-02-18T09:11:27.336Z,100573.10
2019-02-18T09:14:15.835Z,100561.36
2019-02-18T09:17:02.052Z,100562.36
2019-02-18T09:19:48.271Z,100556.58
2019-02-18T09:22:54.158Z,100557.42
2019-02-18T09:25:51.640Z,100558.86
2019-02-18T09:28:37.905Z,100559.93
2019-02-18T09:31:27.864Z,100559.20
2019-02-18T09:34:14.183Z,100556.97
2019-02-18T09:37:00.263Z,100556.98
2019-02-18T09:39:48.013Z,100556.36
2019-02-18T09:42:37.283Z,100552.74
2019-02-18T09:45:26.229Z,100545.83
2019-02-18T09:48:12.569Z,100547.11
2019-02-18T09:51:00.118Z,100548.91
2019-02-18T09:53:46.305Z,100549.69
2019-02-18T09:56:33.045Z,100546.34
2019-02-18T09:59:19.086Z,100553.36
2019-02-18T10:02:07.955Z,100555.84
2019-02-18T10:04:56.510Z,100546.75
2019-02-18T10:07:44.139Z,100544.20
2019-02-18T10:10:32.791Z,100542.58
2019-02-18T10:13:19.428Z,100541.34
2019-02-18T10:16:05.597Z,100536.25
2019-02-18T10:18:51.483Z,100536.79
2019-02-18T10:21:37.759Z,100534.83
2019-02-18T10:24:24.325Z,100533.97
2019-02-18T10:27:10.302Z,100535.45
2019-02-18T10:29:56.669Z,100527.23
2019-02-18T10:32:42.744Z,100532.15
2019-02-18T10:35:28.505Z,100533.50
2019-02-18T10:38:14.709Z,100528.70
2019-02-18T10:41:06.937Z,100528.80
2019-02-18T10:43:54.810Z,100521.59
2019-02-18T10:46:41.292Z,100520.80
2019-02-18T10:49:27.243Z,100524.39
2019-02-18T10:52:16.042Z,100520.06
2019-02-18T10:55:02.469Z,100510.92
2019-02-18T10:57:48.630Z,100515.21
2019-02-18T11:00:34.894Z,100517.16
2019-02-18T11:03:20.939Z,100507.53
2019-02-18T11:06:09.251Z,100504.64
2019-02-18T11:08:55.476Z,100502.89
2019-02-18T11:11:41.310Z,100500.02
2019-02-18T11:14:29.326Z,100497.30
2019-02-18T11:17:15.754Z,100493.32
2019-02-18T11:20:02.200Z,100491.66
2019-02-18T11:22:50.952Z,100488.17
2019-02-18T11:25:37.685Z,100481.91
2019-02-18T11:28:23.565Z,100478.88
2019-02-18T11:31:09.557Z,100480.73
2019-02-18T11:33:56.359Z,100468.81
2019-02-18T11:36:43.342Z,100463.95
2019-02-18T11:39:29.422Z,100460.65
2019-02-18T11:42:15.691Z,100457.23
2019-02-18T11:45:01.686Z,100455.53
2019-02-18T11:47:48.192Z,100449.44
2019-02-18T11:50:34.263Z,100442.16
2019-02-18T11:53:22.989Z,100438.71
2019-02-18T11:56:11.374Z,100434.84
2019-02-18T11:58:57.747Z,100437.93
2019-02-18T12:01:43.814Z,100435.03
2019-02-18T12:04:29.572Z,100429.55
2019-02-18T12:07:15.695Z,100429.76
2019-02-18T12:10:03.991Z,100427.37
2019-02-18T12:12:49.956Z,100423.97
2019-02-18T12:15:36.164Z,100411.68
2019-02-18T12:18:22.155Z,100414.08
2019-02-18T12:21:08.405Z,100414.08
2019-02-18T12:23:56.557Z,100406.58
2019-02-18T12:26:42.845Z,100407.55
2019-02-18T12:29:28.875Z,100397.86
2019-02-18T12:32:15.115Z,100398.52
2019-02-18T12:35:03.519Z,100391.02
2019-02-18T12:37:55.372Z,100382.13
2019-02-18T12:40:37.659Z,100376.73
2019-02-18T12:43:23.575Z,100381.25
2019-02-18T12:46:15.874Z,100377.05
2019-02-18T12:48:57.616Z,100371.44
2019-02-18T12:51:46.481Z,100369.34
2019-02-18T12:54:32.345Z,100359.02
2019-02-18T12:57:18.319Z,100360.47
2019-02-18T13:00:08.424Z,100362.45
2019-02-18T13:02:54.366Z,100345.72
2019-02-18T13:05:40.332Z,100345.66
2019-02-18T13:08:26.473Z,100340.48
2019-02-18T13:11:13.667Z,100348.21
2019-02-18T13:13:59.934Z,100351.06
2019-02-18T13:16:46.139Z,100336.13
2019-02-18T13:19:35.115Z,100343.78
2019-02-18T13:22:24.427Z,100336.38
2019-02-18T13:25:12.781Z,100331.17
2019-02-18T13:27:58.995Z,100324.48
2019-02-18T13:30:44.926Z,100320.03
2019-02-18T13:33:31.184Z,100316.16
2019-02-18T13:36:17.346Z,100308.54
2019-02-18T13:39:07.170Z,100303.91
2019-02-18T13:41:53.531Z,100299.53
2019-02-18T13:44:40.131Z,100303.54
2019-02-18T13:47:26.058Z,100298.70
2019-02-18T13:50:18.412Z,100291.77
2019-02-18T13:53:04.888Z,100291.27
2019-02-18T13:55:50.776Z,100291.42
2019-02-18T13:58:36.954Z,100292.38
2019-02-18T14:01:23.111Z,100280.00
2019-02-18T14:04:09.206Z,100281.91
2019-02-18T14:06:55.579Z,100276.66
2019-02-18T14:09:41.864Z,100275.90
2019-02-18T14:12:30.819Z,100271.09
2019-02-18T14:15:17.626Z,100264.03
2019-02-18T14:18:07.500Z,100269.86
2019-02-18T14:20:54.087Z,100257.93
2019-02-18T14:23:42.188Z,100254.61
2019-02-18T14:26:29.811Z,100251.73
2019-02-18T14:29:17.896Z,100253.10
2019-02-18T14:32:04.319Z,100253.97
2019-02-18T14:34:50.728Z,100254.52
2019-02-18T14:37:39.405Z,100247.03
2019-02-18T14:40:27.091Z,100252.78
2019-02-18T14:43:17.822Z,100250.44
2019-02-18T14:46:04.604Z,100244.65
2019-02-18T14:48:50.860Z,100249.98
2019-02-18T14:51:36.920Z,100243.66
2019-02-18T14:54:23.488Z,100243.34
2019-02-18T14:57:13.627Z,100239.38
2019-02-18T14:59:59.991Z,100233.76
2019-02-18T15:02:46.603Z,100230.39
2019-02-18T15:05:33.002Z,100228.53
2019-02-18T15:08:18.988Z,100226.33
2019-02-18T15:11:05.504Z,100220.05
2019-02-18T15:13:52.230Z,100213.42
2019-02-18T15:16:38.165Z,100205.16
2019-02-18T15:19:30.303Z,100205.36
2019-02-18T15:22:16.500Z,100196.84
2019-02-18T15:25:02.877Z,100197.94
2019-02-18T15:27:49.228Z,100197.02
2019-02-18T15:30:35.638Z,100191.39
2019-02-18T15:33:24.575Z,100183.54
2019-02-18T15:36:13.220Z,100181.16
2019-02-18T15:39:03.772Z,100176.20
2019-02-18T15:41:49.864Z,100167.54
2019-02-18T15:44:35.960Z,100165.11
2019-02-18T15:47:23.023Z,100159.47
2019-02-18T15:50:09.449Z,100161.42
2019-02-18T15:52:55.724Z,100155.95
2019-02-18T15:55:44.636Z,100147.81
2019-02-18T15:58:31.312Z,100145.31
2019-02-18T16:01:17.346Z,100145.57
2019-02-18T16:04:04.193Z,100140.96
2019-02-18T16:06:51.417Z,100151.16
2019-02-18T16:09:37.626Z,100147.61
2019-02-18T16:12:23.456Z,100149.73
2019-02-18T16:15:11.771Z,100146.16
2019-02-18T16:18:00.608Z,100161.94
2019-02-18T16:20:46.481Z,100154.23
2019-02-18T16:23:32.404Z,100149.14
2019-02-18T16:26:18.727Z,100150.34
2019-02-18T16:29:06.624Z,100146.53
2019-02-18T16:31:53.162Z,100146.34
2019-02-18T16:34:39.401Z,100148.23
2019-02-18T16:37:25.979Z,100142.27
2019-02-18T16:40:13.938Z,100147.25
2019-02-18T16:43:00.295Z,100142.88
2019-02-18T16:45:46.267Z,100148.25
2019-02-18T16:48:33.035Z,100147.23
2019-02-18T16:51:22.373Z,100148.00
2019-02-18T16:54:12.134Z,100151.92
2019-02-18T16:56:59.649Z,100148.83
2019-02-18T16:59:50.224Z,100149.24
2019-02-18T17:02:36.848Z,100149.00
2019-02-18T17:05:27.095Z,100151.09
2019-02-18T17:08:13.352Z,100147.13
2019-02-18T17:11:04.428Z,100155.14
2019-02-18T17:13:50.268Z,100164.79
2019-02-18T17:16:37.791Z,100161.76
2019-02-18T17:19:23.611Z,100159.43
2019-02-18T17:22:09.514Z,100167.38
2019-02-18T17:24:58.676Z,100167.99
2019-02-18T17:27:44.840Z,100177.59
2019-02-18T17:30:31.011Z,100175.47
2019-02-18T17:33:19.217Z,100175.58
2019-02-18T17:36:05.676Z,100176.84
2019-02-18T17:38:51.636Z,100174.94
2019-02-18T17:41:37.889Z,100174.77
2019-02-18T17:44:24.118Z,100171.08
2019-02-18T17:47:10.049Z,100170.43
2019-02-18T17:49:56.865Z,100168.82
2019-02-18T17:52:45.789Z,100167.80
2019-02-18T17:55:31.876Z,100165.37
2019-02-18T17:58:18.127Z,100164.13
2019-02-18T18:01:05.450Z,100165.84
2019-02-18T18:03:51.786Z,100162.87
2019-02-18T18:06:41.318Z,100165.39
2019-02-18T18:09:27.678Z,100164.62
2019-02-18T18:12:13.520Z,100176.36
2019-02-18T18:14:59.843Z,100173.45
2019-02-18T18:17:47.567Z,100170.59
2019-02-18T18:20:33.468Z,100167.29
2019-02-18T18:23:21.908Z,100166.97
2019-02-18T18:26:07.855Z,100174.30
2019-02-18T18:28:53.823Z,100173.23
2019-02-18T18:31:39.983Z,100174.14
2019-02-18T18:34:26.165Z,100171.88
2019-02-18T18:37:12.249Z,100167.74
2019-02-18T18:39:58.601Z,100163.78
2019-02-18T18:42:46.528Z,100163.91
2019-02-18T18:45:32.721Z,100160.75
2019-02-18T18:48:18.848Z,100160.64
2019-02-18T18:51:06.465Z,100155.66
2019-02-18T18:53:52.273Z,100152.85
2019-02-18T18:56:38.605Z,100150.70
2019-02-18T18:59:26.043Z,100150.64
2019-02-18T19:02:12.582Z,100145.80
2019-02-18T19:04:58.875Z,100148.50
2019-02-18T19:07:46.744Z,100165.48
2019-02-18T19:10:35.891Z,100162.16
2019-02-18T19:13:22.152Z,100163.45
2019-02-18T19:16:08.474Z,100166.86
2019-02-18T19:18:55.680Z,100166.05
2019-02-18T19:21:42.487Z,100171.98
2019-02-18T19:24:29.994Z,100177.22
2019-02-18T19:27:18.961Z,100181.92
2019-02-18T19:30:06.797Z,100184.74
2019-02-18T19:32:53.091Z,100180.06
2019-02-18T19:35:39.324Z,100179.28
2019-02-18T19:38:28.596Z,100184.89
2019-02-18T19:41:20.845Z,100186.77
2019-02-18T19:44:06.709Z,100185.02
2019-02-18T19:46:58.550Z,100183.37
2019-02-18T19:49:45.012Z,100185.59
2019-02-18T19:52:31.474Z,100190.33
2019-02-18T19:55:22.552Z,100183.88
2019-02-18T19:58:11.193Z,100188.20
2019-02-18T20:00:59.502Z,100184.75
2019-02-18T20:03:46.021Z,100179.77
2019-02-18T20:06:32.174Z,100187.31
2019-02-18T20:09:18.571Z,100186.05
2019-02-18T20:12:08.278Z,100186.89
2019-02-18T20:14:54.807Z,100188.68
2019-02-18T20:17:40.889Z,100191.91
2019-02-18T20:20:27.480Z,100186.80
2019-02-18T20:23:13.882Z,100187.34
2019-02-18T20:26:05.063Z,100186.54
2019-02-18T20:28:57.377Z,100182.70
2019-02-18T20:31:43.847Z,100185.84
2019-02-18T20:34:30.093Z,100185.44
2019-02-18T20:37:18.442Z,100183.32
2019-02-18T20:40:04.752Z,100187.14
2019-02-18T20:42:51.156Z,100185.11
2019-02-18T20:45:37.508Z,100185.98
2019-02-18T20:48:24.536Z,100188.54
2019-02-18T20:51:14.245Z,100190.78
2019-02-18T20:54:02.884Z,100191.92
2019-02-18T20:56:51.883Z,100192.55
2019-02-18T20:59:38.416Z,100195.17
2019-02-18T21:02:27.180Z,100192.16
2019-02-18T21:05:18.698Z,100194.77
2019-02-18T21:08:07.758Z,100190.62
2019-02-18T21:10:54.992Z,100185.89
2019-02-18T21:13:40.951Z,100189.73
2019-02-18T21:16:31.826Z,100190.27
2019-02-18T21:19:18.283Z,100184.25
2019-02-18T21:22:08.461Z,100182.95
2019-02-18T21:24:54.802Z,100187.26
2019-02-18T21:27:43.429Z,100185.09
2019-02-18T21:30:29.663Z,100185.52
2019-02-18T21:33:17.126Z,100185.53
2019-02-18T21:36:03.066Z,100183.39
2019-02-18T21:38:49.278Z,100183.37
2019-02-18T21:41:35.429Z,100189.13
2019-02-18T21:44:25.281Z,100185.57
2019-02-18T21:47:09.383Z,100188.59
2019-02-18T21:49:55.591Z,100188.17
2019-02-18T21:52:43.412Z,100187.41
2019-02-18T21:55:31.857Z,100190.33
2019-02-18T21:58:18.052Z,100195.14
2019-02-18T22:01:03.937Z,100189.15
2019-02-18T22:03:49.853Z,100188.25
2019-02-18T22:06:36.038Z,100192.13
2019-02-18T22:09:22.326Z,100193.33
2019-02-18T22:12:08.338Z,100194.73
2019-02-18T22:14:54.592Z,100194.72
2019-02-18T22:17:40.988Z,100202.04
2019-02-18T22:20:26.769Z,100202.91
2019-02-18T22:23:14.143Z,100196.00
2019-02-18T22:26:01.616Z,100199.95
2019-02-18T22:28:48.300Z,100194.01
2019-02-18T22:31:34.456Z,100193.92
2019-02-18T22:34:22.949Z,100193.90
2019-02-18T22:37:09.204Z,100194.38
2019-02-18T22:39:55.376Z,100196.16
2019-02-18T22:42:41.436Z,100191.00
2019-02-18T22:45:27.510Z,100194.48
2019-02-18T22:48:14.092Z,100192.75
2019-02-18T22:51:06.197Z,100188.88
2019-02-18T22:53:52.518Z,100189.38
2019-02-18T22:56:38.767Z,100178.62
2019-02-18T22:59:29.924Z,100186.37
2019-02-18T23:02:18.192Z,100185.03
2019-02-18T23:05:04.756Z,100178.98
2019-02-18T23:07:51.074Z,100175.13
2019-02-18T23:10:36.936Z,100177.72
2019-02-18T23:13:23.198Z,100181.66
2019-02-18T23:16:09.324Z,100185.54
2019-02-18T23:18:55.617Z,100186.06
2019-02-18T23:21:42.641Z,100193.37
2019-02-18T23:24:29.565Z,100186.48
2019-02-18T23:27:15.378Z,100195.53
2019-02-18T23:30:01.641Z,100184.77
2019-02-18T23:32:48.080Z,100187.79
2019-02-18T23:35:34.312Z,100180.03
2019-02-18T23:38:20.716Z,100186.48
2019-02-18T23:41:06.933Z,100183.48
2019-02-18T23:43:52.736Z,100181.25
2019-02-18T23:46:40.336Z,100176.95
2019-02-18T23:49:26.353Z,100182.97
2019-02-18T23:52:15.542Z,100179.95
2019-02-18T23:55:01.973Z,100182.86
2019-02-18T23:57:48.249Z,100191.16
